Kezdőlap
METAR-TAF:

METAR-TAF

Repülőterek :

Ubon Ratchathani, Thaiföld

földrajzi szélesség: 15-15N, földrajzi hosszúság: 104-52E, magasság: 123 m

Jelenlegi meteorológiai megfigyelések

A jelentés 33 perccel ezelõtt készült, 12:00 UTC
Északi szél 4 kt
Hőmérséklet 26°C
Páratartalom 54%
Légköri nyomás 1013 hPa
Látótávolság: 9000 m

METAR: VTUU 191200Z 01004KT 9000 NSC 26/16 Q1013 NOSIG

Idő: 19:33 (12:33 UTC)

Előrejelzés

A jelentés 1 órával és 33 perccel ezelõtt készült, 11:00 UTC
Az előrejelzés 19-én 12 óra UTC és 20-én 12 óra UTC között érvényes
Északkeleti szél 5 kt
Látótávolság: 9000 m

TAF: VTUU 191100Z 1912/2012 05005KT 9000 NSC

Meteorológiai megfigyelések és előrejelzések több, mint 4000 repülőtéren (METAR és TAF jelentéseket).

A térképen piros és sárga pontok jelzik az elérhető meteorológiai állomásokat.

Mozgassa az egeret a pont fölött, hogy megjelenjen az állomás neve.

Azután kattintson az időjárási megfigyelések és előrejelzések megtekintéséhez.

A térkép megváltoztatása: kattintson a fekete keresztel jelölt zöld gombra ráközelítéshez, a vonallal jelölt zöld gombra távolításhoz, vagy a zöld nyilakra a szomszédos térképek eléréséhez.


METAR-TAF: